sensor_id;sensor_type;location;lat;lon;timestamp;P1;durP1;ratioP1;P2;durP2;ratioP2
20093;SDS011;10206;48.012;10.030;2023-02-28T00:00:06;9.57;;;5.63;;
20093;SDS011;10206;48.012;10.030;2023-02-28T00:02:35;9.80;;;5.40;;
20093;SDS011;10206;48.012;10.030;2023-02-28T00:05:01;6.90;;;5.70;;
20093;SDS011;10206;48.012;10.030;2023-02-28T00:07:29;7.20;;;4.77;;
20093;SDS011;10206;48.012;10.030;2023-02-28T00:09:56;11.70;;;4.83;;
20093;SDS011;10206;48.012;10.030;2023-02-28T00:12:22;7.27;;;4.80;;
20093;SDS011;10206;48.012;10.030;2023-02-28T00:14:49;6.00;;;5.00;;
20093;SDS011;10206;48.012;10.030;2023-02-28T00:17:15;7.03;;;5.07;;
20093;SDS011;10206;48.012;10.030;2023-02-28T00:19:48;7.47;;;4.97;;
20093;SDS011;10206;48.012;10.030;2023-02-28T00:22:16;6.07;;;4.57;;
20093;SDS011;10206;48.012;10.030;2023-02-28T00:24:44;5.50;;;4.33;;
20093;SDS011;10206;48.012;10.030;2023-02-28T00:27:11;7.63;;;4.97;;
20093;SDS011;10206;48.012;10.030;2023-02-28T00:29:38;6.50;;;4.43;;
20093;SDS011;10206;48.012;10.030;2023-02-28T00:32:05;9.93;;;5.07;;
20093;SDS011;10206;48.012;10.030;2023-02-28T00:34:31;7.60;;;4.60;;
20093;SDS011;10206;48.012;10.030;2023-02-28T00:37:03;7.13;;;4.30;;
20093;SDS011;10206;48.012;10.030;2023-02-28T00:39:33;9.40;;;4.90;;
20093;SDS011;10206;48.012;10.030;2023-02-28T00:42:00;6.50;;;4.27;;
20093;SDS011;10206;48.012;10.030;2023-02-28T00:44:28;6.07;;;4.40;;
20093;SDS011;10206;48.012;10.030;2023-02-28T00:46:54;7.07;;;4.93;;
20093;SDS011;10206;48.012;10.030;2023-02-28T00:49:21;5.63;;;4.50;;
20093;SDS011;10206;48.012;10.030;2023-02-28T00:51:48;6.90;;;4.57;;
20093;SDS011;10206;48.012;10.030;2023-02-28T00:54:14;8.50;;;4.90;;
20093;SDS011;10206;48.012;10.030;2023-02-28T00:56:41;6.63;;;4.60;;
20093;SDS011;10206;48.012;10.030;2023-02-28T00:59:07;6.93;;;4.73;;
20093;SDS011;10206;48.012;10.030;2023-02-28T01:01:33;6.37;;;4.40;;
20093;SDS011;10206;48.012;10.030;2023-02-28T01:04:00;7.53;;;4.90;;
20093;SDS011;10206;48.012;10.030;2023-02-28T01:06:26;9.83;;;4.30;;
20093;SDS011;10206;48.012;10.030;2023-02-28T01:08:52;6.00;;;4.23;;
20093;SDS011;10206;48.012;10.030;2023-02-28T01:11:18;7.53;;;4.80;;
20093;SDS011;10206;48.012;10.030;2023-02-28T01:13:45;7.07;;;4.10;;
20093;SDS011;10206;48.012;10.030;2023-02-28T01:16:12;6.50;;;4.40;;
20093;SDS011;10206;48.012;10.030;2023-02-28T01:18:38;6.97;;;5.07;;
20093;SDS011;10206;48.012;10.030;2023-02-28T01:21:09;5.63;;;4.63;;
20093;SDS011;10206;48.012;10.030;2023-02-28T01:23:38;8.20;;;5.10;;
20093;SDS011;10206;48.012;10.030;2023-02-28T01:26:05;7.87;;;4.63;;
20093;SDS011;10206;48.012;10.030;2023-02-28T01:28:33;5.83;;;4.70;;
20093;SDS011;10206;48.012;10.030;2023-02-28T01:30:59;7.00;;;4.63;;
20093;SDS011;10206;48.012;10.030;2023-02-28T01:33:25;7.73;;;4.63;;
20093;SDS011;10206;48.012;10.030;2023-02-28T01:35:58;8.33;;;4.80;;
20093;SDS011;10206;48.012;10.030;2023-02-28T01:38:26;7.67;;;4.90;;
20093;SDS011;10206;48.012;10.030;2023-02-28T01:40:52;6.87;;;4.93;;
20093;SDS011;10206;48.012;10.030;2023-02-28T01:43:20;8.20;;;5.03;;
20093;SDS011;10206;48.012;10.030;2023-02-28T01:45:51;7.30;;;5.40;;
20093;SDS011;10206;48.012;10.030;2023-02-28T01:48:19;12.27;;;5.07;;
20093;SDS011;10206;48.012;10.030;2023-02-28T01:50:51;6.47;;;4.83;;
20093;SDS011;10206;48.012;10.030;2023-02-28T01:53:20;7.97;;;4.90;;
20093;SDS011;10206;48.012;10.030;2023-02-28T01:55:51;9.30;;;5.10;;
20093;SDS011;10206;48.012;10.030;2023-02-28T01:58:19;7.50;;;4.63;;
20093;SDS011;10206;48.012;10.030;2023-02-28T02:00:45;7.90;;;5.10;;
20093;SDS011;10206;48.012;10.030;2023-02-28T02:03:13;9.70;;;5.67;;
20093;SDS011;10206;48.012;10.030;2023-02-28T02:05:44;8.53;;;5.63;;
20093;SDS011;10206;48.012;10.030;2023-02-28T02:08:13;8.73;;;5.27;;
20093;SDS011;10206;48.012;10.030;2023-02-28T02:10:48;8.50;;;5.87;;
20093;SDS011;10206;48.012;10.030;2023-02-28T02:19:14;7.73;;;5.23;;
20093;SDS011;10206;48.012;10.030;2023-02-28T02:25:22;9.83;;;5.83;;
20093;SDS011;10206;48.012;10.030;2023-02-28T02:30:48;10.30;;;5.83;;
20093;SDS011;10206;48.012;10.030;2023-02-28T02:36:26;8.90;;;5.77;;
20093;SDS011;10206;48.012;10.030;2023-02-28T02:39:13;8.63;;;5.73;;
20093;SDS011;10206;48.012;10.030;2023-02-28T02:42:28;9.10;;;5.53;;
20093;SDS011;10206;48.012;10.030;2023-02-28T02:47:41;9.23;;;6.37;;
20093;SDS011;10206;48.012;10.030;2023-02-28T02:50:11;12.00;;;6.53;;
20093;SDS011;10206;48.012;10.030;2023-02-28T02:52:45;8.80;;;6.13;;
20093;SDS011;10206;48.012;10.030;2023-02-28T02:55:16;9.47;;;6.13;;
20093;SDS011;10206;48.012;10.030;2023-02-28T02:57:46;10.20;;;5.83;;
20093;SDS011;10206;48.012;10.030;2023-02-28T03:00:16;9.63;;;6.50;;
20093;SDS011;10206;48.012;10.030;2023-02-28T03:02:45;9.47;;;6.90;;
20093;SDS011;10206;48.012;10.030;2023-02-28T03:05:35;9.43;;;6.50;;
20093;SDS011;10206;48.012;10.030;2023-02-28T03:08:13;9.97;;;6.50;;
20093;SDS011;10206;48.012;10.030;2023-02-28T03:15:55;12.40;;;7.20;;
20093;SDS011;10206;48.012;10.030;2023-02-28T03:23:56;11.70;;;7.57;;
20093;SDS011;10206;48.012;10.030;2023-02-28T03:26:39;12.07;;;7.33;;
20093;SDS011;10206;48.012;10.030;2023-02-28T03:32:26;10.50;;;7.50;;
20093;SDS011;10206;48.012;10.030;2023-02-28T03:34:59;11.33;;;7.77;;
20093;SDS011;10206;48.012;10.030;2023-02-28T03:37:31;11.43;;;7.43;;
20093;SDS011;10206;48.012;10.030;2023-02-28T03:40:05;12.57;;;7.87;;
20093;SDS011;10206;48.012;10.030;2023-02-28T03:42:39;11.87;;;7.13;;
20093;SDS011;10206;48.012;10.030;2023-02-28T03:45:14;11.60;;;7.97;;
20093;SDS011;10206;48.012;10.030;2023-02-28T03:53:21;12.63;;;7.90;;
20093;SDS011;10206;48.012;10.030;2023-02-28T03:56:39;10.50;;;7.37;;
20093;SDS011;10206;48.012;10.030;2023-02-28T04:01:53;12.90;;;8.10;;
20093;SDS011;10206;48.012;10.030;2023-02-28T04:04:20;11.93;;;7.83;;
20093;SDS011;10206;48.012;10.030;2023-02-28T04:06:49;12.37;;;8.07;;
20093;SDS011;10206;48.012;10.030;2023-02-28T04:09:16;12.07;;;7.40;;
20093;SDS011;10206;48.012;10.030;2023-02-28T04:11:44;13.17;;;8.23;;
20093;SDS011;10206;48.012;10.030;2023-02-28T04:14:14;10.97;;;6.83;;
20093;SDS011;10206;48.012;10.030;2023-02-28T04:16:40;13.87;;;8.10;;
20093;SDS011;10206;48.012;10.030;2023-02-28T04:19:08;13.00;;;8.70;;
20093;SDS011;10206;48.012;10.030;2023-02-28T04:21:36;11.80;;;7.70;;
20093;SDS011;10206;48.012;10.030;2023-02-28T04:24:04;13.67;;;7.70;;
20093;SDS011;10206;48.012;10.030;2023-02-28T04:26:31;14.13;;;8.57;;
20093;SDS011;10206;48.012;10.030;2023-02-28T04:28:59;12.30;;;7.80;;
20093;SDS011;10206;48.012;10.030;2023-02-28T04:31:26;12.97;;;8.03;;
20093;SDS011;10206;48.012;10.030;2023-02-28T04:33:52;13.57;;;8.33;;
20093;SDS011;10206;48.012;10.030;2023-02-28T04:36:18;14.23;;;9.00;;
20093;SDS011;10206;48.012;10.030;2023-02-28T04:38:44;13.67;;;8.20;;
20093;SDS011;10206;48.012;10.030;2023-02-28T04:41:11;13.17;;;9.10;;
20093;SDS011;10206;48.012;10.030;2023-02-28T04:43:37;13.43;;;7.97;;
20093;SDS011;10206;48.012;10.030;2023-02-28T04:46:04;13.63;;;8.57;;
20093;SDS011;10206;48.012;10.030;2023-02-28T04:48:32;14.67;;;9.43;;
20093;SDS011;10206;48.012;10.030;2023-02-28T04:51:00;16.27;;;9.00;;
20093;SDS011;10206;48.012;10.030;2023-02-28T04:53:38;14.13;;;8.40;;
20093;SDS011;10206;48.012;10.030;2023-02-28T04:56:08;12.30;;;8.03;;
20093;SDS011;10206;48.012;10.030;2023-02-28T04:58:37;14.17;;;8.37;;
20093;SDS011;10206;48.012;10.030;2023-02-28T05:01:05;15.53;;;8.77;;
20093;SDS011;10206;48.012;10.030;2023-02-28T05:03:41;22.63;;;12.80;;
20093;SDS011;10206;48.012;10.030;2023-02-28T05:06:08;14.63;;;8.87;;
20093;SDS011;10206;48.012;10.030;2023-02-28T05:08:35;13.50;;;8.73;;
20093;SDS011;10206;48.012;10.030;2023-02-28T05:11:01;14.57;;;8.83;;
20093;SDS011;10206;48.012;10.030;2023-02-28T05:13:30;14.73;;;8.17;;
20093;SDS011;10206;48.012;10.030;2023-02-28T05:15:56;15.67;;;9.57;;
20093;SDS011;10206;48.012;10.030;2023-02-28T05:18:23;17.57;;;8.87;;
20093;SDS011;10206;48.012;10.030;2023-02-28T05:20:49;14.23;;;8.80;;
20093;SDS011;10206;48.012;10.030;2023-02-28T05:23:15;15.17;;;9.50;;
20093;SDS011;10206;48.012;10.030;2023-02-28T05:25:42;14.63;;;8.20;;
20093;SDS011;10206;48.012;10.030;2023-02-28T05:28:08;14.70;;;9.33;;
20093;SDS011;10206;48.012;10.030;2023-02-28T05:30:34;20.27;;;10.47;;
20093;SDS011;10206;48.012;10.030;2023-02-28T05:33:00;15.70;;;10.00;;
20093;SDS011;10206;48.012;10.030;2023-02-28T05:35:27;17.07;;;9.53;;
20093;SDS011;10206;48.012;10.030;2023-02-28T05:37:53;18.67;;;9.93;;
20093;SDS011;10206;48.012;10.030;2023-02-28T05:40:19;16.43;;;9.60;;
20093;SDS011;10206;48.012;10.030;2023-02-28T05:42:45;16.53;;;9.23;;
20093;SDS011;10206;48.012;10.030;2023-02-28T05:45:11;16.37;;;9.40;;
20093;SDS011;10206;48.012;10.030;2023-02-28T05:47:38;15.53;;;9.67;;
20093;SDS011;10206;48.012;10.030;2023-02-28T05:50:05;14.13;;;9.17;;
20093;SDS011;10206;48.012;10.030;2023-02-28T05:52:31;17.27;;;10.07;;
20093;SDS011;10206;48.012;10.030;2023-02-28T05:54:57;16.93;;;9.90;;
20093;SDS011;10206;48.012;10.030;2023-02-28T05:57:24;19.67;;;10.67;;
20093;SDS011;10206;48.012;10.030;2023-02-28T05:59:50;16.93;;;9.63;;
20093;SDS011;10206;48.012;10.030;2023-02-28T06:02:16;15.80;;;9.80;;
20093;SDS011;10206;48.012;10.030;2023-02-28T06:04:43;17.17;;;10.23;;
20093;SDS011;10206;48.012;10.030;2023-02-28T06:07:10;18.77;;;10.57;;
20093;SDS011;10206;48.012;10.030;2023-02-28T06:09:37;19.57;;;10.73;;
20093;SDS011;10206;48.012;10.030;2023-02-28T06:12:04;17.07;;;10.30;;
20093;SDS011;10206;48.012;10.030;2023-02-28T06:14:32;15.80;;;10.33;;
20093;SDS011;10206;48.012;10.030;2023-02-28T06:16:59;16.97;;;9.83;;
20093;SDS011;10206;48.012;10.030;2023-02-28T06:19:26;19.90;;;10.73;;
20093;SDS011;10206;48.012;10.030;2023-02-28T06:21:54;17.93;;;10.90;;
20093;SDS011;10206;48.012;10.030;2023-02-28T06:24:22;18.97;;;11.27;;
20093;SDS011;10206;48.012;10.030;2023-02-28T06:26:49;17.80;;;10.67;;
20093;SDS011;10206;48.012;10.030;2023-02-28T06:29:16;16.83;;;10.13;;
20093;SDS011;10206;48.012;10.030;2023-02-28T06:31:46;18.80;;;11.10;;
20093;SDS011;10206;48.012;10.030;2023-02-28T06:34:13;24.97;;;11.87;;
20093;SDS011;10206;48.012;10.030;2023-02-28T06:36:40;22.73;;;12.87;;
20093;SDS011;10206;48.012;10.030;2023-02-28T06:39:07;22.60;;;11.57;;
20093;SDS011;10206;48.012;10.030;2023-02-28T06:41:34;19.17;;;11.43;;
20093;SDS011;10206;48.012;10.030;2023-02-28T06:44:05;19.23;;;11.57;;
20093;SDS011;10206;48.012;10.030;2023-02-28T06:46:42;21.97;;;12.60;;
20093;SDS011;10206;48.012;10.030;2023-02-28T06:49:10;19.53;;;11.50;;
20093;SDS011;10206;48.012;10.030;2023-02-28T06:51:37;23.77;;;12.10;;
20093;SDS011;10206;48.012;10.030;2023-02-28T06:54:09;20.30;;;11.80;;
20093;SDS011;10206;48.012;10.030;2023-02-28T06:56:36;22.63;;;12.97;;
20093;SDS011;10206;48.012;10.030;2023-02-28T06:59:03;23.17;;;13.03;;
20093;SDS011;10206;48.012;10.030;2023-02-28T07:01:29;19.97;;;11.17;;
20093;SDS011;10206;48.012;10.030;2023-02-28T07:03:56;22.47;;;12.30;;
20093;SDS011;10206;48.012;10.030;2023-02-28T07:06:23;20.43;;;12.50;;
20093;SDS011;10206;48.012;10.030;2023-02-28T07:08:50;24.77;;;11.30;;
20093;SDS011;10206;48.012;10.030;2023-02-28T07:11:17;18.57;;;11.97;;
20093;SDS011;10206;48.012;10.030;2023-02-28T07:13:44;22.20;;;12.07;;
20093;SDS011;10206;48.012;10.030;2023-02-28T07:16:12;21.57;;;12.90;;
20093;SDS011;10206;48.012;10.030;2023-02-28T07:18:38;22.27;;;12.57;;
20093;SDS011;10206;48.012;10.030;2023-02-28T07:21:06;21.30;;;12.80;;
20093;SDS011;10206;48.012;10.030;2023-02-28T07:23:33;21.00;;;12.50;;
20093;SDS011;10206;48.012;10.030;2023-02-28T07:26:00;20.77;;;12.53;;
20093;SDS011;10206;48.012;10.030;2023-02-28T07:28:26;23.30;;;12.83;;
20093;SDS011;10206;48.012;10.030;2023-02-28T07:30:52;22.53;;;12.87;;
20093;SDS011;10206;48.012;10.030;2023-02-28T07:33:18;21.83;;;12.67;;
20093;SDS011;10206;48.012;10.030;2023-02-28T07:35:44;21.60;;;13.00;;
20093;SDS011;10206;48.012;10.030;2023-02-28T07:38:10;21.90;;;13.80;;
20093;SDS011;10206;48.012;10.030;2023-02-28T07:40:38;21.63;;;12.70;;
20093;SDS011;10206;48.012;10.030;2023-02-28T07:43:04;24.07;;;12.53;;
20093;SDS011;10206;48.012;10.030;2023-02-28T07:45:31;24.47;;;12.83;;
20093;SDS011;10206;48.012;10.030;2023-02-28T07:47:59;20.23;;;12.87;;
20093;SDS011;10206;48.012;10.030;2023-02-28T07:50:26;22.23;;;14.00;;
20093;SDS011;10206;48.012;10.030;2023-02-28T07:52:57;25.13;;;14.13;;
20093;SDS011;10206;48.012;10.030;2023-02-28T07:55:23;21.30;;;13.07;;
20093;SDS011;10206;48.012;10.030;2023-02-28T07:57:50;23.67;;;14.20;;
20093;SDS011;10206;48.012;10.030;2023-02-28T08:00:16;24.07;;;13.57;;
20093;SDS011;10206;48.012;10.030;2023-02-28T08:02:42;20.70;;;11.80;;
20093;SDS011;10206;48.012;10.030;2023-02-28T08:05:08;24.33;;;12.93;;
20093;SDS011;10206;48.012;10.030;2023-02-28T08:07:34;23.00;;;13.57;;
20093;SDS011;10206;48.012;10.030;2023-02-28T08:10:01;21.30;;;13.10;;
20093;SDS011;10206;48.012;10.030;2023-02-28T08:12:27;23.47;;;14.03;;
20093;SDS011;10206;48.012;10.030;2023-02-28T08:14:53;22.10;;;13.37;;
20093;SDS011;10206;48.012;10.030;2023-02-28T08:17:19;25.27;;;15.07;;
20093;SDS011;10206;48.012;10.030;2023-02-28T08:19:46;22.43;;;13.10;;
20093;SDS011;10206;48.012;10.030;2023-02-28T08:22:12;23.20;;;14.23;;
20093;SDS011;10206;48.012;10.030;2023-02-28T08:24:38;24.27;;;13.87;;
20093;SDS011;10206;48.012;10.030;2023-02-28T08:27:07;23.57;;;12.53;;
20093;SDS011;10206;48.012;10.030;2023-02-28T08:29:33;23.67;;;13.77;;
20093;SDS011;10206;48.012;10.030;2023-02-28T08:32:01;26.60;;;14.40;;
20093;SDS011;10206;48.012;10.030;2023-02-28T08:34:27;25.17;;;13.73;;
20093;SDS011;10206;48.012;10.030;2023-02-28T08:36:53;24.60;;;14.43;;
20093;SDS011;10206;48.012;10.030;2023-02-28T08:39:20;25.37;;;14.53;;
20093;SDS011;10206;48.012;10.030;2023-02-28T08:41:46;27.67;;;14.87;;
20093;SDS011;10206;48.012;10.030;2023-02-28T08:44:12;24.20;;;14.13;;
20093;SDS011;10206;48.012;10.030;2023-02-28T08:46:38;28.30;;;15.60;;
20093;SDS011;10206;48.012;10.030;2023-02-28T08:49:04;24.33;;;14.57;;
20093;SDS011;10206;48.012;10.030;2023-02-28T08:51:32;23.63;;;14.60;;
20093;SDS011;10206;48.012;10.030;2023-02-28T08:53:59;23.03;;;13.93;;
20093;SDS011;10206;48.012;10.030;2023-02-28T08:56:26;25.40;;;14.67;;
20093;SDS011;10206;48.012;10.030;2023-02-28T08:58:54;26.00;;;14.10;;
20093;SDS011;10206;48.012;10.030;2023-02-28T09:01:22;28.97;;;16.40;;
20093;SDS011;10206;48.012;10.030;2023-02-28T09:03:53;25.20;;;15.43;;
20093;SDS011;10206;48.012;10.030;2023-02-28T09:06:21;51.93;;;26.20;;
20093;SDS011;10206;48.012;10.030;2023-02-28T09:08:48;40.10;;;21.80;;
20093;SDS011;10206;48.012;10.030;2023-02-28T09:11:14;46.50;;;24.83;;
20093;SDS011;10206;48.012;10.030;2023-02-28T09:13:41;36.93;;;18.27;;
20093;SDS011;10206;48.012;10.030;2023-02-28T09:16:08;34.27;;;18.10;;
20093;SDS011;10206;48.012;10.030;2023-02-28T09:18:38;30.93;;;16.23;;
20093;SDS011;10206;48.012;10.030;2023-02-28T09:21:06;26.73;;;15.27;;
20093;SDS011;10206;48.012;10.030;2023-02-28T09:23:33;26.17;;;16.00;;
20093;SDS011;10206;48.012;10.030;2023-02-28T09:26:03;31.77;;;16.80;;
20093;SDS011;10206;48.012;10.030;2023-02-28T09:28:30;28.63;;;16.97;;
20093;SDS011;10206;48.012;10.030;2023-02-28T09:30:56;24.60;;;14.70;;
20093;SDS011;10206;48.012;10.030;2023-02-28T09:33:25;28.03;;;15.30;;
20093;SDS011;10206;48.012;10.030;2023-02-28T09:35:57;28.03;;;16.87;;
20093;SDS011;10206;48.012;10.030;2023-02-28T09:38:25;54.47;;;27.90;;
20093;SDS011;10206;48.012;10.030;2023-02-28T09:40:53;29.20;;;16.83;;
20093;SDS011;10206;48.012;10.030;2023-02-28T09:43:22;41.63;;;23.17;;
20093;SDS011;10206;48.012;10.030;2023-02-28T09:45:52;40.93;;;21.57;;
20093;SDS011;10206;48.012;10.030;2023-02-28T09:48:41;32.47;;;16.57;;
20093;SDS011;10206;48.012;10.030;2023-02-28T09:51:15;28.97;;;16.67;;
20093;SDS011;10206;48.012;10.030;2023-02-28T09:53:58;28.23;;;15.93;;
20093;SDS011;10206;48.012;10.030;2023-02-28T09:56:27;26.80;;;16.23;;
20093;SDS011;10206;48.012;10.030;2023-02-28T09:59:06;28.00;;;17.13;;
20093;SDS011;10206;48.012;10.030;2023-02-28T10:06:54;28.73;;;18.13;;
20093;SDS011;10206;48.012;10.030;2023-02-28T10:09:26;23.63;;;15.00;;
20093;SDS011;10206;48.012;10.030;2023-02-28T10:11:57;39.10;;;22.17;;
20093;SDS011;10206;48.012;10.030;2023-02-28T10:14:29;32.60;;;18.13;;
20093;SDS011;10206;48.012;10.030;2023-02-28T10:16:59;31.20;;;18.87;;
20093;SDS011;10206;48.012;10.030;2023-02-28T10:22:25;49.70;;;25.27;;
20093;SDS011;10206;48.012;10.030;2023-02-28T10:25:16;35.40;;;19.53;;
20093;SDS011;10206;48.012;10.030;2023-02-28T10:27:45;48.63;;;23.20;;
20093;SDS011;10206;48.012;10.030;2023-02-28T10:30:11;32.83;;;18.07;;
20093;SDS011;10206;48.012;10.030;2023-02-28T10:32:44;96.47;;;36.07;;
20093;SDS011;10206;48.012;10.030;2023-02-28T10:35:23;32.90;;;18.10;;
20093;SDS011;10206;48.012;10.030;2023-02-28T10:37:53;45.17;;;20.97;;
20093;SDS011;10206;48.012;10.030;2023-02-28T10:42:57;33.57;;;16.47;;
20093;SDS011;10206;48.012;10.030;2023-02-28T10:45:31;26.53;;;16.07;;
20093;SDS011;10206;48.012;10.030;2023-02-28T10:48:04;26.63;;;15.57;;
20093;SDS011;10206;48.012;10.030;2023-02-28T11:09:50;29.17;;;16.73;;
20093;SDS011;10206;48.012;10.030;2023-02-28T11:12:22;29.70;;;17.37;;
20093;SDS011;10206;48.012;10.030;2023-02-28T11:15:28;31.80;;;17.17;;
20093;SDS011;10206;48.012;10.030;2023-02-28T11:18:01;28.50;;;16.80;;
20093;SDS011;10206;48.012;10.030;2023-02-28T11:20:31;30.83;;;17.60;;
20093;SDS011;10206;48.012;10.030;2023-02-28T11:22:58;28.57;;;17.33;;
20093;SDS011;10206;48.012;10.030;2023-02-28T11:25:34;30.00;;;16.47;;
20093;SDS011;10206;48.012;10.030;2023-02-28T11:30:59;34.03;;;18.57;;
20093;SDS011;10206;48.012;10.030;2023-02-28T11:36:24;26.87;;;17.23;;
20093;SDS011;10206;48.012;10.030;2023-02-28T11:38:52;27.43;;;16.50;;
20093;SDS011;10206;48.012;10.030;2023-02-28T11:41:33;31.20;;;17.37;;
20093;SDS011;10206;48.012;10.030;2023-02-28T11:46:49;29.00;;;17.37;;
20093;SDS011;10206;48.012;10.030;2023-02-28T11:57:56;27.47;;;16.83;;
20093;SDS011;10206;48.012;10.030;2023-02-28T12:00:33;32.73;;;17.93;;
20093;SDS011;10206;48.012;10.030;2023-02-28T12:13:41;29.73;;;17.27;;
20093;SDS011;10206;48.012;10.030;2023-02-28T12:19:17;29.03;;;17.27;;
20093;SDS011;10206;48.012;10.030;2023-02-28T12:24:53;29.20;;;16.53;;
20093;SDS011;10206;48.012;10.030;2023-02-28T12:27:28;28.63;;;17.33;;
20093;SDS011;10206;48.012;10.030;2023-02-28T12:29:58;29.60;;;17.80;;
20093;SDS011;10206;48.012;10.030;2023-02-28T12:32:33;29.90;;;17.00;;
20093;SDS011;10206;48.012;10.030;2023-02-28T12:37:36;28.23;;;18.53;;
20093;SDS011;10206;48.012;10.030;2023-02-28T12:42:51;30.53;;;17.90;;
20093;SDS011;10206;48.012;10.030;2023-02-28T12:45:36;25.20;;;15.70;;
20093;SDS011;10206;48.012;10.030;2023-02-28T12:48:09;27.07;;;16.63;;
20093;SDS011;10206;48.012;10.030;2023-02-28T12:50:40;29.97;;;17.27;;
20093;SDS011;10206;48.012;10.030;2023-02-28T12:53:13;27.17;;;16.83;;
20093;SDS011;10206;48.012;10.030;2023-02-28T12:56:17;27.83;;;17.17;;
20093;SDS011;10206;48.012;10.030;2023-02-28T12:58:58;27.90;;;17.03;;
20093;SDS011;10206;48.012;10.030;2023-02-28T13:09:57;28.53;;;16.87;;
20093;SDS011;10206;48.012;10.030;2023-02-28T13:12:26;29.70;;;16.57;;
20093;SDS011;10206;48.012;10.030;2023-02-28T13:15:16;26.93;;;16.83;;
20093;SDS011;10206;48.012;10.030;2023-02-28T13:17:48;28.40;;;16.80;;
20093;SDS011;10206;48.012;10.030;2023-02-28T13:20:17;27.60;;;17.70;;
20093;SDS011;10206;48.012;10.030;2023-02-28T13:22:46;25.90;;;15.97;;
20093;SDS011;10206;48.012;10.030;2023-02-28T13:27:58;24.23;;;16.47;;
20093;SDS011;10206;48.012;10.030;2023-02-28T13:36:06;31.60;;;19.03;;
20093;SDS011;10206;48.012;10.030;2023-02-28T13:38:36;39.30;;;21.83;;
20093;SDS011;10206;48.012;10.030;2023-02-28T13:46:30;25.17;;;16.53;;
20093;SDS011;10206;48.012;10.030;2023-02-28T13:49:18;31.53;;;18.37;;
20093;SDS011;10206;48.012;10.030;2023-02-28T13:51:48;28.60;;;17.20;;
20093;SDS011;10206;48.012;10.030;2023-02-28T13:59:53;32.30;;;17.77;;
20093;SDS011;10206;48.012;10.030;2023-02-28T14:05:15;27.30;;;16.90;;
20093;SDS011;10206;48.012;10.030;2023-02-28T14:07:45;26.37;;;17.00;;
20093;SDS011;10206;48.012;10.030;2023-02-28T14:10:49;26.00;;;17.63;;
20093;SDS011;10206;48.012;10.030;2023-02-28T14:13:41;28.33;;;17.73;;
20093;SDS011;10206;48.012;10.030;2023-02-28T14:16:05;29.30;;;17.53;;
20093;SDS011;10206;48.012;10.030;2023-02-28T14:18:36;28.33;;;17.47;;
20093;SDS011;10206;48.012;10.030;2023-02-28T14:21:13;26.70;;;17.07;;
20093;SDS011;10206;48.012;10.030;2023-02-28T14:24:02;26.30;;;16.67;;
20093;SDS011;10206;48.012;10.030;2023-02-28T14:29:35;25.93;;;16.73;;
20093;SDS011;10206;48.012;10.030;2023-02-28T14:38:05;24.60;;;16.33;;
20093;SDS011;10206;48.012;10.030;2023-02-28T14:40:37;26.97;;;16.83;;
20093;SDS011;10206;48.012;10.030;2023-02-28T14:43:05;27.07;;;16.93;;
20093;SDS011;10206;48.012;10.030;2023-02-28T14:45:56;25.90;;;16.90;;
20093;SDS011;10206;48.012;10.030;2023-02-28T14:48:24;26.80;;;16.17;;
20093;SDS011;10206;48.012;10.030;2023-02-28T14:51:00;25.80;;;15.70;;
20093;SDS011;10206;48.012;10.030;2023-02-28T14:53:28;26.50;;;17.03;;
20093;SDS011;10206;48.012;10.030;2023-02-28T14:56:00;26.63;;;17.00;;
20093;SDS011;10206;48.012;10.030;2023-02-28T14:58:27;26.00;;;17.03;;
20093;SDS011;10206;48.012;10.030;2023-02-28T15:00:55;26.63;;;16.93;;
20093;SDS011;10206;48.012;10.030;2023-02-28T15:03:31;25.40;;;16.70;;
20093;SDS011;10206;48.012;10.030;2023-02-28T15:06:06;25.77;;;16.70;;
20093;SDS011;10206;48.012;10.030;2023-02-28T15:08:38;26.27;;;16.33;;
20093;SDS011;10206;48.012;10.030;2023-02-28T15:11:05;24.90;;;16.57;;
20093;SDS011;10206;48.012;10.030;2023-02-28T15:13:41;26.70;;;17.27;;
20093;SDS011;10206;48.012;10.030;2023-02-28T15:16:11;27.23;;;17.50;;
20093;SDS011;10206;48.012;10.030;2023-02-28T15:18:46;26.90;;;17.40;;
20093;SDS011;10206;48.012;10.030;2023-02-28T15:21:23;26.60;;;16.57;;
20093;SDS011;10206;48.012;10.030;2023-02-28T15:23:57;26.90;;;16.97;;
20093;SDS011;10206;48.012;10.030;2023-02-28T15:26:41;25.73;;;16.70;;
20093;SDS011;10206;48.012;10.030;2023-02-28T15:29:15;24.43;;;16.50;;
20093;SDS011;10206;48.012;10.030;2023-02-28T15:31:44;28.00;;;17.40;;
20093;SDS011;10206;48.012;10.030;2023-02-28T15:34:20;25.50;;;17.20;;
20093;SDS011;10206;48.012;10.030;2023-02-28T15:36:51;41.67;;;24.33;;
20093;SDS011;10206;48.012;10.030;2023-02-28T15:39:22;28.17;;;17.67;;
20093;SDS011;10206;48.012;10.030;2023-02-28T15:41:51;31.63;;;19.83;;
20093;SDS011;10206;48.012;10.030;2023-02-28T15:44:34;31.47;;;18.63;;
20093;SDS011;10206;48.012;10.030;2023-02-28T15:47:02;31.57;;;18.67;;
20093;SDS011;10206;48.012;10.030;2023-02-28T15:49:40;24.03;;;16.97;;
20093;SDS011;10206;48.012;10.030;2023-02-28T15:52:17;26.50;;;17.87;;
20093;SDS011;10206;48.012;10.030;2023-02-28T15:54:58;27.17;;;17.57;;
20093;SDS011;10206;48.012;10.030;2023-02-28T15:57:32;25.37;;;16.40;;
20093;SDS011;10206;48.012;10.030;2023-02-28T16:00:02;26.50;;;16.90;;
20093;SDS011;10206;48.012;10.030;2023-02-28T16:07:40;27.83;;;18.80;;
20093;SDS011;10206;48.012;10.030;2023-02-28T16:10:08;27.13;;;17.07;;
20093;SDS011;10206;48.012;10.030;2023-02-28T16:12:39;24.13;;;15.87;;
20093;SDS011;10206;48.012;10.030;2023-02-28T16:15:16;25.63;;;16.60;;
20093;SDS011;10206;48.012;10.030;2023-02-28T16:17:44;24.30;;;15.40;;
20093;SDS011;10206;48.012;10.030;2023-02-28T16:20:19;31.90;;;19.93;;
20093;SDS011;10206;48.012;10.030;2023-02-28T16:22:48;26.57;;;17.50;;
20093;SDS011;10206;48.012;10.030;2023-02-28T16:25:15;23.70;;;17.23;;
20093;SDS011;10206;48.012;10.030;2023-02-28T16:27:43;27.63;;;16.80;;
20093;SDS011;10206;48.012;10.030;2023-02-28T16:30:20;28.63;;;16.77;;
20093;SDS011;10206;48.012;10.030;2023-02-28T16:32:49;27.83;;;17.90;;
20093;SDS011;10206;48.012;10.030;2023-02-28T16:35:16;28.13;;;17.57;;
20093;SDS011;10206;48.012;10.030;2023-02-28T16:37:43;26.87;;;16.97;;
20093;SDS011;10206;48.012;10.030;2023-02-28T16:40:17;28.10;;;18.77;;
20093;SDS011;10206;48.012;10.030;2023-02-28T16:42:46;30.97;;;17.90;;
20093;SDS011;10206;48.012;10.030;2023-02-28T16:45:21;28.07;;;17.43;;
20093;SDS011;10206;48.012;10.030;2023-02-28T16:47:50;28.33;;;18.60;;
20093;SDS011;10206;48.012;10.030;2023-02-28T16:50:20;30.20;;;19.50;;
20093;SDS011;10206;48.012;10.030;2023-02-28T16:52:48;47.53;;;28.77;;
20093;SDS011;10206;48.012;10.030;2023-02-28T16:55:17;28.60;;;19.13;;
20093;SDS011;10206;48.012;10.030;2023-02-28T16:57:44;27.47;;;17.57;;
20093;SDS011;10206;48.012;10.030;2023-02-28T17:00:15;31.97;;;21.43;;
20093;SDS011;10206;48.012;10.030;2023-02-28T17:02:41;30.00;;;20.20;;
20093;SDS011;10206;48.012;10.030;2023-02-28T17:05:08;64.43;;;37.13;;
20093;SDS011;10206;48.012;10.030;2023-02-28T17:07:38;49.10;;;27.30;;